Moscow, Russia

12:42 PM MSK on July 25, 2017 (GMT +0300)
SNT Kolos | | Change Station

Elev 555 ft 55.75 °N, 37.62 °E | Updated 22 seconds ago

Partly Cloudy
Partly Cloudy
81.3 °F
Feels Like 81 °F
N
3.0
Wind Variable Wind from West

Today
High -- | Low -- °F
--% Chance of Precip.
Yesterday
High -- | Low -- °F
Precip. -- in
Pressure 29.83 in
Visibility -9999.0 miles
Clouds
Heat Index 81 °F
Dew Point 58 °F
Humidity 45%
Rainfall 0.00 in
Snow Depth Not available.
4:22 AM 8:48 PM
Waxing Crescent, 5% visible
METAR UUWW 250930Z 21003MPS CAVOK 22/13 Q1010 R24/000070 NOSIG
Pressure 29.83 in
Visibility -9999.0 miles
Clouds
Heat Index 81 °F
Dew Point 58 °F
Humidity 45%
Rainfall 0.00 in
Snow Depth Not available.
4:22 AM 8:48 PM
Waxing Crescent, 5% visible
METAR UUWW 250930Z 21003MPS CAVOK 22/13 Q1010 R24/000070 NOSIG

Get Severe Weather Alerts

Thanks for signing up!

Be on the lookout for a verification email in your inbox.

You'll start receiving the daily forecast at 6 AM.

×

10-Day Weather Forecast

×

Almanac

Astronomy

Jul. 25, 2017 Rise Set
Actual Time
Civil Twilight
Nautical Twilight
Astronomical Twilight
Moon
Length of Visible Light
Length of Day
Tomorrow will be .
, % of the Moon is Illuminated

Today's Extremes

Country Highs Country Lows

Community

WunderPhotos

Category 6

Welcome to Category 6. This is the collective home for Weather Underground's featured writeups by Dr. Jeff Masters (right), Bob Henson (left), Chris Burt, and other regular contributors.

Nearby

Air Quality

  Air Quality AQ Index Pollutant
Not available.

Snow Depth

Station Depth Elevation

Earthquake Activity

City Distance Mag. Time & Date
Minimum magnitude displayed is 2.5.

Coastal Water Temperatures

Place Temperature

Stations

Nearby Weather Stations

Station Location Temp. Windchill Dew Point Humidity Wind Precip. Elev Updated Type